Create Custom Reports and Graphics: Custom Report

Alpine-Summit 8643' (Ward Mt.)

Current Conditions

11/19/19 4:15 PM (-08:00)
Updated Every 15 Minutes
Temp 36.1 °F   19.3
RH 70 %   40
Wet Bulb 32.2 °F   8.6
Dew Pt 27.2 °F   2.9
Wind Spd 29.9 mph   5.7
Wind Dir SW | 235 °
Wind Gust 36.1 mph   8.0
WindChill 24.2 °F   32.2

Last 6 Hours

Alpine-Summit 8643' (Ward Mt.)

15 Minute Data | America/Los_Angeles
as of 11/19/19 4:29 PM PST
Date & Time Temp (°F) RH (%) Dew Pt (°F) Wet Bulb (°F) Wind Dir (°) Wind Spd (mph) Wind Gust (mph) WindChill (°F)
11/19/19 - 1615 36.1 70 27.2 32.2 SW | 235 29.9 36.1 24.2
11/19/19 - 1600 37.9 70 28.9 33.8 SW | 236 30.7 36.1 25.7
11/19/19 - 1545 38.4 72 30.1 34.5 WSW | 243 29.4 35.1 26.5
11/19/19 - 1530 39.0 74 31.3 35.4 WSW | 256 29.4 33.9 26.5
11/19/19 - 1515 38.7 74 31.0 35.0 WSW | 245 28.0 34.7 27.4
11/19/19 - 1500 39.1 73 31.2 35.3 SW | 222 30.9 38.4 27.9
11/19/19 - 1445 39.6 67 29.6 35.0 SSW | 213 37.0 42.8 26.4
11/19/19 - 1430 38.9 64 27.8 33.9 SW | 218 39.6 49.7 25.3
11/19/19 - 1415 37.9 85 33.8 35.9 SW | 221 34.7 42.9 23.6
11/19/19 - 1400 36.7 92 34.6 35.6 SW | 220 32.0 39.3 23.8
11/19/19 - 1345 36.7 93 34.9 35.8 SW | 221 30.5 40.1 24.2
11/19/19 - 1330 37.2 91 35.0 36.1 SW | 223 26.8 36.3 25.5
11/19/19 - 1315 37.8 87 34.2 36.1 SW | 222 26.8 33.0 27.0
11/19/19 - 1300 38.9 83 34.1 36.5 SW | 217 26.6 33.1 28.5
11/19/19 - 1245 39.6 82 34.5 37.1 SW | 219 30.1 37.4 28.1
11/19/19 - 1230 39.8 79 33.9 36.9 SW | 225 29.5 36.5 28.4
11/19/19 - 1215 39.7 80 34.1 37.0 SW | 225 29.2 34.7 28.7
11/19/19 - 1200 40.2 79 34.1 37.2 SW | 220 30.7 36.4 28.6
11/19/19 - 1145 40.3 76 33.5 36.9 SW | 215 32.1 38.0 28.3
11/19/19 - 1130 39.9 78 33.5 36.7 SSW | 213 27.9 34.1 28.0
11/19/19 - 1115 39.1 78 32.9 36.1 SW | 232 27.6 33.8 28.5
11/19/19 - 1100 39.9 79 33.8 36.9 SW | 220 28.6 37.7 28.6
11/19/19 - 1045 39.5 81 34.1 36.9 SW | 214 27.5 34.8 28.5
11/19/19 - 1030 39.6 80 34.0 36.9 SW | 216 28.3 33.1 27.8
Max 40.3 93 35.0 37.2 - 39.6 49.7 28.7
Avg 38.8 79 32.6 35.8 - 30.2 37.0 26.9
Min 36.1 64 27.2 32.2 - 26.6 33.0 23.6

Last 30 Days

Alpine-Summit 8643' (Ward Mt.)

Daily Data | America/Los_Angeles
as of 11/19/19 4:29 PM PST
Date Daily Max Temp (°F) Max Temp Time Daily Min Temp (°F) Min Temp Time Wind Spd (mph) Daily Max Wind (mph) Max RH (%) Min RH (%) Wet Bulb (°F)
11/18/19 60.1 1412 40.3 2358 21.9 42.9 54 16 37.9
11/17/19 62.7 1408 39.5 0200 16.4 34.7 50 19 37.1
11/16/19 52.6 1450 36.8 0002 25.4 37.9 57 21 32.9
11/15/19 50.7 1543 33.8 0427 21.8 50.9 67 33 32.3
11/14/19 52.5 1354 38.2 2231 22.0 49.3 74 31 35.5
11/13/19 54.4 1409 45.4 2353 15.1 31.0 46 21 35.8
11/12/19 55.6 1449 45.4 0657 20.9 45.1 49 22 36.0
11/11/19 52.6 1458 39.6 0637 22.2 46.8 57 34 35.8
11/10/19 58.6 1439 42.4 2339 19.6 48.6 44 23 35.2
11/9/19 61.1 1417 43.9 0000 8.7 26.7 34 19 35.7
11/8/19 59.6 1515 43.9 2359 11.4 26.1 32 16 34.9
11/7/19 57.9 1453 41.0 0541 12.2 35.8 40 20 34.5
11/6/19 60.0 1451 42.5 2334 9.8 31.4 40 16 35.3
11/5/19 59.3 1513 40.5 0536 19.2 35.2 41 13 34.2
11/4/19 55.9 1509 42.1 2258 23.9 34.1 41 23 34.5
11/3/19 61.8 1527 41.9 0412 5.4 18.0 37 20 35.5
11/2/19 58.5 1545 39.7 0039 11.3 28.2 34 13 33.7
11/1/19 51.5 1505 39.4 0000 23.9 34.2 34 2 29.2
10/31/19 55.0 1631 33.7 0741 12.6 36.7 50 7 29.6
10/30/19 46.4 1548 18.4 0045 19.8 39.1 69 1 21.2
10/29/19 34.6 1439 18.7 2320 37.6 100.1 67 20 21.2
10/28/19 44.5 1517 19.9 0259 29.3 78.2 67 7 22.9
10/27/19 33.2 0000 16.8 0803 68.5 106.6 86 42 18.3
10/26/19 57.5 1457 33.2 0000 24.8 50.1 57 17 36.0
10/25/19 62.6 1508 46.4 0000 17.3 35.1 31 13 37.5
10/24/19 52.1 1531 34.4 0700 39.4 103.1 54 18 31.6
10/23/19 49.3 1702 38.3 0732 50.4 106.3 81 24 35.3
10/22/19 62.0 1615 44.1 2350 15.7 36.9 59 17 38.0
10/21/19 56.5 1532 35.5 0526 30.9 58.8 91 24 36.3
10/20/19 53.8 1615 28.9 0359 11.7 33.9 91 49 34.6
Max 62.7 - 46.4 - 68.5 106.6 91 49 38.0
Avg - - - - 22.3 - - - 32.9
Min 33.2 - 16.8 - 5.4 18.0 31 1 18.3
Calm: 0.0%
Calm: 0.0%